Time;durP1;ratioP1;P1;durP2;ratioP2;P2;SDS_P1;SDS_P2;PMS_P1;PMS_P2;Temp;Humidity;BMP_temperature;BMP_pressure;BME280_temperature;BME280_humidity;BME280_pressure;Samples;Min_cycle;Max_cycle;Signal;HPM_P1;HPM_P2
2020/12/04 00:01:20;;;;;;;;;50.75;45.50;;;;;;;;12735534;27;9309;-50
2020/12/04 00:07:21;;;;;;;;;63.00;51.25;;;;;;;;12733756;27;8901;-50
2020/12/04 00:13:22;;;;;;;;;53.75;47.25;;;;;;;;12715330;27;9608;-51
2020/12/04 00:19:24;;;;;;;;;44.00;43.00;;;;;;;;12735555;27;8849;-51
2020/12/04 00:25:25;;;;;;;;;63.00;47.00;;;;;;;;12734112;27;8864;-50
2020/12/04 00:31:27;;;;;;;;;55.75;45.75;;;;;;;;12734815;27;8838;-46
2020/12/04 00:37:28;;;;;;;;;61.00;46.50;;;;;;;;12734022;27;9623;-48
2020/12/04 00:43:32;;;;;;;;;51.50;46.00;;;;;;;;12732905;27;8831;-47
2020/12/04 00:49:34;;;;;;;;;45.75;37.00;;;;;;;;12734800;27;8862;-49
2020/12/04 00:55:35;;;;;;;;;48.25;41.00;;;;;;;;12713934;27;8820;-48
2020/12/04 01:01:37;;;;;;;;;53.50;46.00;;;;;;;;12714084;27;8836;-50
2020/12/04 01:07:39;;;;;;;;;62.50;48.50;;;;;;;;12732159;27;8932;-49
2020/12/04 01:13:40;;;;;;;;;65.00;51.00;;;;;;;;12730680;27;9602;-48
2020/12/04 01:19:42;;;;;;;;;58.00;46.50;;;;;;;;12725045;27;8834;-48
2020/12/04 01:25:43;;;;;;;;;67.25;52.00;;;;;;;;12731169;27;8823;-49
2020/12/04 01:31:47;;;;;;;;;66.25;51.75;;;;;;;;12731178;27;8916;-53
2020/12/04 01:37:49;;;;;;;;;49.75;45.75;;;;;;;;12731754;27;8836;-52
2020/12/04 01:43:50;;;;;;;;;57.75;45.75;;;;;;;;12730079;27;8823;-49
2020/12/04 01:49:52;;;;;;;;;64.50;51.25;;;;;;;;12732352;27;9568;-49
2020/12/04 01:55:55;;;;;;;;;36.25;27.50;;;;;;;;12730673;27;8839;-48
2020/12/04 02:02:16;;;;;;;;;64.25;52.00;;;;;;;;12729800;27;8827;-48
2020/12/04 02:08:35;;;;;;;;;70.00;55.25;;;;;;;;12729862;27;8863;-49
2020/12/04 02:14:37;;;;;;;;;53.50;46.25;;;;;;;;12729884;27;8839;-48
2020/12/04 02:20:38;;;;;;;;;68.00;52.00;;;;;;;;12731181;27;8835;-48
2020/12/04 02:26:44;;;;;;;;;67.00;55.00;;;;;;;;12730161;27;9006;-48
2020/12/04 02:32:46;;;;;;;;;73.00;54.00;;;;;;;;12733421;27;8820;-47
2020/12/04 02:38:48;;;;;;;;;63.75;53.25;;;;;;;;12738477;27;8846;-47
2020/12/04 02:44:49;;;;;;;;;66.00;54.25;;;;;;;;12739583;27;8850;-49
2020/12/04 02:50:50;;;;;;;;;63.75;51.00;;;;;;;;12739436;27;8819;-48
2020/12/04 02:56:52;;;;;;;;;68.00;53.50;;;;;;;;12739043;27;8828;-47
2020/12/04 03:02:53;;;;;;;;;73.25;54.25;;;;;;;;12740023;27;9631;-49
2020/12/04 03:08:55;;;;;;;;;66.25;53.50;;;;;;;;12737321;27;8929;-50
2020/12/04 03:14:58;;;;;;;;;58.75;45.50;;;;;;;;12737990;27;8835;-50
2020/12/04 03:20:59;;;;;;;;;65.75;52.25;;;;;;;;12739119;27;8855;-53
2020/12/04 03:27:00;;;;;;;;;67.00;52.50;;;;;;;;12737474;27;8843;-49
2020/12/04 03:33:02;;;;;;;;;64.75;53.25;;;;;;;;12737726;27;8850;-50
2020/12/04 03:39:03;;;;;;;;;69.50;53.75;;;;;;;;12737009;27;8831;-52
2020/12/04 03:45:05;;;;;;;;;65.25;53.00;;;;;;;;12736003;27;8854;-52
2020/12/04 03:51:07;;;;;;;;;64.75;51.25;;;;;;;;12736374;27;8859;-50
2020/12/04 03:57:08;;;;;;;;;51.50;44.50;;;;;;;;12734892;27;8828;-50
2020/12/04 04:03:10;;;;;;;;;67.00;51.75;;;;;;;;12737504;27;8862;-47
2020/12/04 04:09:12;;;;;;;;;62.00;49.75;;;;;;;;12735422;27;8842;-51
2020/12/04 04:15:13;;;;;;;;;61.00;50.50;;;;;;;;12734735;27;8827;-50
2020/12/04 04:21:15;;;;;;;;;62.75;48.50;;;;;;;;12735124;27;8850;-49
2020/12/04 04:27:16;;;;;;;;;61.25;49.00;;;;;;;;12733534;27;8943;-49
2020/12/04 04:33:17;;;;;;;;;63.25;50.50;;;;;;;;12734762;27;8819;-51
2020/12/04 04:39:28;;;;;;;;;69.25;53.75;;;;;;;;12732695;27;8819;-48
2020/12/04 04:45:29;;;;;;;;;67.50;50.75;;;;;;;;12732775;27;8890;-48
2020/12/04 04:51:31;;;;;;;;;67.25;54.00;;;;;;;;12714263;27;8871;-51
2020/12/04 04:57:33;;;;;;;;;67.00;51.75;;;;;;;;12733475;27;8835;-48
2020/12/04 05:03:34;;;;;;;;;65.50;50.75;;;;;;;;12711104;27;8813;-48
2020/12/04 05:09:35;;;;;;;;;57.25;42.25;;;;;;;;12711005;27;8839;-49
2020/12/04 05:15:39;;;;;;;;;55.75;44.50;;;;;;;;12722656;27;9549;-48
2020/12/04 05:21:40;;;;;;;;;59.00;49.25;;;;;;;;12725481;27;8866;-47
2020/12/04 05:27:42;;;;;;;;;65.25;50.00;;;;;;;;12731709;27;8831;-47
2020/12/04 05:33:45;;;;;;;;;58.25;45.75;;;;;;;;12723777;27;8835;-47
2020/12/04 05:39:48;;;;;;;;;64.25;50.75;;;;;;;;12723656;27;8823;-49
2020/12/04 05:45:49;;;;;;;;;67.25;52.00;;;;;;;;12730242;27;8828;-51
2020/12/04 05:51:54;;;;;;;;;70.75;53.25;;;;;;;;12732122;27;8861;-51
2020/12/04 05:58:00;;;;;;;;;64.75;50.75;;;;;;;;12729395;27;8815;-53
2020/12/04 06:04:01;;;;;;;;;57.25;46.75;;;;;;;;12730057;27;8815;-53
2020/12/04 06:10:04;;;;;;;;;58.00;49.50;;;;;;;;12729885;27;8859;-52
2020/12/04 06:16:15;;;;;;;;;65.75;49.25;;;;;;;;12720805;27;8862;-50
2020/12/04 06:22:18;;;;;;;;;64.00;47.75;;;;;;;;12729081;27;8839;-51
2020/12/04 06:28:21;;;;;;;;;64.00;48.25;;;;;;;;12728425;27;8847;-50
2020/12/04 06:34:23;;;;;;;;;60.25;45.50;;;;;;;;12731095;27;9561;-55
2020/12/04 06:40:30;;;;;;;;;65.75;49.50;;;;;;;;12709767;27;8843;-50
2020/12/04 06:46:37;;;;;;;;;61.75;49.25;;;;;;;;12729210;27;8815;-50
2020/12/04 06:52:38;;;;;;;;;61.25;49.00;;;;;;;;12729292;27;8827;-50
2020/12/04 06:58:40;;;;;;;;;57.25;45.50;;;;;;;;12721493;27;8859;-49
2020/12/04 07:04:47;;;;;;;;;64.25;48.00;;;;;;;;12729177;27;8827;-49
2020/12/04 07:10:53;;;;;;;;;57.50;49.50;;;;;;;;12720332;27;8815;-48
2020/12/04 07:16:55;;;;;;;;;54.50;44.50;;;;;;;;12727795;27;8883;-53
2020/12/04 07:22:56;;;;;;;;;74.75;57.25;;;;;;;;12737044;27;8831;-50
2020/12/04 07:28:58;;;;;;;;;57.50;47.50;;;;;;;;12735723;27;8827;-47
2020/12/04 07:34:59;;;;;;;;;56.75;43.75;;;;;;;;12737455;27;8978;-51
2020/12/04 07:41:00;;;;;;;;;50.50;43.75;;;;;;;;12735341;27;8845;-49
2020/12/04 07:47:08;;;;;;;;;62.00;47.75;;;;;;;;12736426;27;8966;-48
2020/12/04 07:53:10;;;;;;;;;62.50;47.75;;;;;;;;12737078;27;8842;-50
2020/12/04 07:59:15;;;;;;;;;53.75;46.25;;;;;;;;12735088;27;9592;-47
2020/12/04 08:05:22;;;;;;;;;62.25;47.25;;;;;;;;12736193;27;8854;-48
2020/12/04 08:11:25;;;;;;;;;43.75;39.25;;;;;;;;12733808;27;8853;-54
2020/12/04 08:17:29;;;;;;;;;56.50;43.50;;;;;;;;12727038;27;8835;-50
2020/12/04 08:23:32;;;;;;;;;65.25;50.00;;;;;;;;12734248;27;8851;-51
2020/12/04 08:29:35;;;;;;;;;61.50;46.75;;;;;;;;12733056;27;9789;-52
2020/12/04 08:35:40;;;;;;;;;55.25;43.25;;;;;;;;12734925;27;8846;-49
2020/12/04 08:41:43;;;;;;;;;52.75;43.00;;;;;;;;12721833;27;8882;-51
2020/12/04 08:47:45;;;;;;;;;47.75;41.00;;;;;;;;12720009;27;8826;-51
2020/12/04 08:53:47;;;;;;;;;57.25;44.00;;;;;;;;12734058;27;8927;-52
2020/12/04 08:59:48;;;;;;;;;54.75;45.75;;;;;;;;12732110;27;8819;-53
2020/12/04 09:05:50;;;;;;;;;42.25;37.00;;;;;;;;12734873;27;8839;-54
2020/12/04 09:11:51;;;;;;;;;50.00;42.50;;;;;;;;12726076;27;8833;-53
2020/12/04 09:17:53;;;;;;;;;57.00;43.75;;;;;;;;12733522;27;8819;-52
2020/12/04 09:23:55;;;;;;;;;61.75;48.50;;;;;;;;12731993;27;8851;-49
2020/12/04 09:29:56;;;;;;;;;54.00;44.75;;;;;;;;12712390;27;8842;-52
2020/12/04 09:35:58;;;;;;;;;58.00;47.00;;;;;;;;12731960;27;8835;-52
2020/12/04 09:41:59;;;;;;;;;54.50;45.25;;;;;;;;12730508;27;8894;-54
2020/12/04 09:48:01;;;;;;;;;59.75;45.75;;;;;;;;12712426;27;8823;-52
2020/12/04 09:54:02;;;;;;;;;55.50;47.00;;;;;;;;12731381;27;8945;-54
2020/12/04 10:00:05;;;;;;;;;54.50;44.25;;;;;;;;12711662;27;8870;-51
2020/12/04 10:06:06;;;;;;;;;55.75;46.00;;;;;;;;12731315;27;8823;-52
2020/12/04 10:12:08;;;;;;;;;56.50;45.00;;;;;;;;12726814;28;9586;-52
2020/12/04 10:18:12;;;;;;;;;59.50;46.50;;;;;;;;12725405;27;8871;-50
2020/12/04 10:24:15;;;;;;;;;63.75;50.25;;;;;;;;12730806;27;9051;-52
2020/12/04 10:30:16;;;;;;;;;57.25;42.00;;;;;;;;12728944;27;8991;-52
2020/12/04 10:36:17;;;;;;;;;52.75;44.00;;;;;;;;12730765;27;8848;-51
2020/12/04 10:42:19;;;;;;;;;47.75;38.25;;;;;;;;12729184;27;8958;-52
2020/12/04 10:48:20;;;;;;;;;57.25;46.25;;;;;;;;12731711;27;8819;-53
2020/12/04 10:54:22;;;;;;;;;48.75;41.00;;;;;;;;12740942;27;8957;-56
2020/12/04 11:00:24;;;;;;;;;48.25;40.75;;;;;;;;12738935;27;8846;-54
2020/12/04 11:06:26;;;;;;;;;53.00;44.75;;;;;;;;12739381;27;8831;-52
2020/12/04 11:12:29;;;;;;;;;56.50;46.00;;;;;;;;12731158;27;8837;-54
2020/12/04 11:18:30;;;;;;;;;60.75;47.75;;;;;;;;12736109;27;8827;-51
2020/12/04 11:24:32;;;;;;;;;54.75;45.50;;;;;;;;12738376;27;8866;-54
2020/12/04 11:30:34;;;;;;;;;58.75;49.25;;;;;;;;12737760;27;8851;-50
2020/12/04 11:36:36;;;;;;;;;55.25;44.75;;;;;;;;12722478;27;8839;-51
2020/12/04 11:42:39;;;;;;;;;52.50;44.25;;;;;;;;12735415;27;8882;-50
2020/12/04 11:48:41;;;;;;;;;57.00;45.00;;;;;;;;12735308;27;8866;-54
2020/12/04 11:54:43;;;;;;;;;56.75;44.75;;;;;;;;12733358;27;8827;-53
2020/12/04 12:00:45;;;;;;;;;55.00;44.25;;;;;;;;12726920;27;8819;-52
2020/12/04 12:06:46;;;;;;;;;59.00;49.00;;;;;;;;12714663;27;8857;-54
2020/12/04 12:12:48;;;;;;;;;55.00;45.00;;;;;;;;12729951;27;8839;-54
2020/12/04 12:18:49;;;;;;;;;48.50;40.50;;;;;;;;12715816;27;9055;-52
2020/12/04 12:24:51;;;;;;;;;40.50;36.50;;;;;;;;12735778;27;8839;-49
2020/12/04 12:30:52;;;;;;;;;48.00;41.00;;;;;;;;12733919;27;8843;-47
2020/12/04 12:36:54;;;;;;;;;42.00;38.50;;;;;;;;12710837;27;8812;-48
2020/12/04 12:42:55;;;;;;;;;48.25;42.25;;;;;;;;12720359;27;9998;-54
2020/12/04 12:48:56;;;;;;;;;53.75;43.00;;;;;;;;12717305;27;8862;-52
2020/12/04 12:54:58;;;;;;;;;49.50;41.00;;;;;;;;12735114;27;8864;-51
2020/12/04 13:00:59;;;;;;;;;48.00;41.50;;;;;;;;12732172;27;8891;-49
2020/12/04 13:07:03;;;;;;;;;51.00;43.50;;;;;;;;12733057;27;8895;-50
2020/12/04 13:13:04;;;;;;;;;60.00;46.25;;;;;;;;12710455;27;8830;-53
2020/12/04 13:19:06;;;;;;;;;57.00;46.75;;;;;;;;12726452;27;8882;-52
2020/12/04 13:25:08;;;;;;;;;49.25;43.00;;;;;;;;12733056;27;8839;-54
2020/12/04 13:31:10;;;;;;;;;50.50;41.75;;;;;;;;12731514;27;8847;-50
2020/12/04 13:37:11;;;;;;;;;63.00;49.25;;;;;;;;12731680;27;8899;-49
2020/12/04 13:43:12;;;;;;;;;56.00;44.50;;;;;;;;12731846;27;8965;-56
2020/12/04 13:49:14;;;;;;;;;61.50;49.50;;;;;;;;12722024;27;8838;-51
2020/12/04 13:55:15;;;;;;;;;64.75;53.75;;;;;;;;12732238;27;8831;-52
2020/12/04 14:01:20;;;;;;;;;76.50;60.75;;;;;;;;12730569;27;8903;-48
2020/12/04 14:07:21;;;;;;;;;66.50;53.00;;;;;;;;12731169;27;9623;-52
2020/12/04 14:13:23;;;;;;;;;63.50;51.75;;;;;;;;12714409;27;8854;-48
2020/12/04 14:19:26;;;;;;;;;65.25;52.50;;;;;;;;12706899;28;8856;-51
2020/12/04 14:25:29;;;;;;;;;66.50;55.25;;;;;;;;12727271;27;8827;-52
2020/12/04 14:31:31;;;;;;;;;65.25;49.75;;;;;;;;12740384;27;8835;-52
2020/12/04 14:37:32;;;;;;;;;65.75;52.75;;;;;;;;12739290;27;8835;-55
2020/12/04 14:43:34;;;;;;;;;70.25;54.00;;;;;;;;12740801;27;8847;-51
2020/12/04 14:49:36;;;;;;;;;68.25;51.25;;;;;;;;12739221;27;8957;-52
2020/12/04 14:55:37;;;;;;;;;69.00;56.50;;;;;;;;12740565;27;8820;-52
2020/12/04 15:01:39;;;;;;;;;74.75;57.25;;;;;;;;12739014;27;9762;-53
2020/12/04 15:07:40;;;;;;;;;66.00;51.25;;;;;;;;12738478;27;8839;-51
2020/12/04 15:13:42;;;;;;;;;72.75;55.00;;;;;;;;12733552;27;9540;-52
2020/12/04 15:19:43;;;;;;;;;60.75;49.00;;;;;;;;12738412;27;8851;-51
2020/12/04 15:25:50;;;;;;;;;63.00;50.50;;;;;;;;12721835;27;8827;-55
2020/12/04 15:31:51;;;;;;;;;66.50;54.75;;;;;;;;12737750;27;8914;-56
2020/12/04 15:37:53;;;;;;;;;71.25;56.00;;;;;;;;12736432;27;8851;-52
2020/12/04 15:43:54;;;;;;;;;71.75;57.25;;;;;;;;12737747;27;9599;-53
2020/12/04 15:49:56;;;;;;;;;74.25;60.25;;;;;;;;12736150;27;8850;-53
2020/12/04 15:55:58;;;;;;;;;73.00;57.25;;;;;;;;12737422;27;8843;-51
2020/12/04 16:01:59;;;;;;;;;68.50;55.00;;;;;;;;12735759;27;8930;-50
2020/12/04 16:08:01;;;;;;;;;64.75;53.00;;;;;;;;12735467;27;9646;-51
2020/12/04 16:14:04;;;;;;;;;69.00;55.50;;;;;;;;12730897;27;8847;-52
2020/12/04 16:20:06;;;;;;;;;65.25;52.25;;;;;;;;12734807;27;8843;-52
2020/12/04 16:26:07;;;;;;;;;70.00;55.00;;;;;;;;12730964;27;9576;-50
2020/12/04 16:32:09;;;;;;;;;64.75;52.75;;;;;;;;12734392;27;8863;-52
2020/12/04 16:38:10;;;;;;;;;60.50;49.00;;;;;;;;12733515;27;8871;-54
2020/12/04 16:44:14;;;;;;;;;70.75;55.50;;;;;;;;12735319;27;8827;-55
2020/12/04 16:50:17;;;;;;;;;67.75;55.25;;;;;;;;12732803;27;8869;-52
2020/12/04 16:56:20;;;;;;;;;56.50;47.75;;;;;;;;12734443;27;8819;-54
2020/12/04 17:02:21;;;;;;;;;70.25;51.25;;;;;;;;12732489;27;8899;-53
2020/12/04 17:08:23;;;;;;;;;60.50;51.00;;;;;;;;12732971;27;8823;-54
2020/12/04 17:14:25;;;;;;;;;63.50;53.00;;;;;;;;12710196;27;8839;-51
2020/12/04 17:20:27;;;;;;;;;67.75;51.00;;;;;;;;12731639;27;8858;-51
2020/12/04 17:26:29;;;;;;;;;66.25;54.25;;;;;;;;12709296;27;8832;-50
2020/12/04 17:32:31;;;;;;;;;65.75;51.50;;;;;;;;12729197;27;8842;-50
2020/12/04 17:38:32;;;;;;;;;72.25;57.50;;;;;;;;12720900;27;8824;-49
2020/12/04 17:44:34;;;;;;;;;75.75;59.00;;;;;;;;12733017;27;9280;-52
2020/12/04 17:50:35;;;;;;;;;74.50;58.00;;;;;;;;12730287;27;8831;-52
2020/12/04 17:56:37;;;;;;;;;72.75;55.00;;;;;;;;12730962;27;9556;-49
2020/12/04 18:02:38;;;;;;;;;64.25;53.50;;;;;;;;12711170;27;8927;-51
2020/12/04 18:08:41;;;;;;;;;69.25;56.75;;;;;;;;12729717;27;8839;-49
2020/12/04 18:14:42;;;;;;;;;75.25;58.25;;;;;;;;12731775;27;8835;-49
2020/12/04 18:20:43;;;;;;;;;66.50;56.00;;;;;;;;12730423;27;8850;-52
2020/12/04 18:26:45;;;;;;;;;72.00;56.00;;;;;;;;12730406;27;8827;-53
2020/12/04 18:32:46;;;;;;;;;75.50;60.25;;;;;;;;12713292;27;8855;-52
2020/12/04 18:38:48;;;;;;;;;68.75;56.75;;;;;;;;12729881;27;9568;-53
2020/12/04 18:44:50;;;;;;;;;71.75;56.25;;;;;;;;12730833;27;8865;-51
2020/12/04 18:50:52;;;;;;;;;65.25;54.25;;;;;;;;12728771;27;9518;-52
2020/12/04 18:56:56;;;;;;;;;68.50;56.00;;;;;;;;12730505;27;8831;-51
2020/12/04 19:02:57;;;;;;;;;60.50;50.50;;;;;;;;12729358;27;8835;-51
2020/12/04 19:08:59;;;;;;;;;68.25;53.25;;;;;;;;12730818;27;8874;-50
2020/12/04 19:15:02;;;;;;;;;68.25;55.00;;;;;;;;12721157;27;8946;-53
2020/12/04 19:21:05;;;;;;;;;68.00;55.25;;;;;;;;12738447;27;8915;-51
2020/12/04 19:27:07;;;;;;;;;69.75;57.50;;;;;;;;12738428;27;8850;-55
2020/12/04 19:33:08;;;;;;;;;67.75;56.25;;;;;;;;12737627;27;9611;-51
2020/12/04 19:39:12;;;;;;;;;68.75;53.00;;;;;;;;12736576;27;9575;-52
2020/12/04 19:45:14;;;;;;;;;77.25;57.75;;;;;;;;12738869;27;8959;-53
2020/12/04 19:51:15;;;;;;;;;69.25;56.50;;;;;;;;12736835;27;8835;-53
2020/12/04 19:57:16;;;;;;;;;68.25;53.75;;;;;;;;12736985;27;8820;-53
2020/12/04 20:03:18;;;;;;;;;66.50;52.25;;;;;;;;12736780;27;8946;-52
2020/12/04 20:09:20;;;;;;;;;65.25;55.00;;;;;;;;12734620;27;8859;-51
2020/12/04 20:15:23;;;;;;;;;77.50;57.50;;;;;;;;12737570;27;8839;-50
2020/12/04 20:21:24;;;;;;;;;62.75;50.25;;;;;;;;12733564;27;8820;-52
2020/12/04 20:27:26;;;;;;;;;67.75;54.00;;;;;;;;12734875;27;8835;-53
2020/12/04 20:33:29;;;;;;;;;67.75;53.25;;;;;;;;12734695;27;8843;-52
2020/12/04 20:39:30;;;;;;;;;62.50;50.50;;;;;;;;12733803;27;8831;-52
2020/12/04 20:45:33;;;;;;;;;68.25;56.25;;;;;;;;12736061;27;8827;-49
2020/12/04 20:51:35;;;;;;;;;68.25;55.00;;;;;;;;12733570;27;8839;-48
2020/12/04 20:57:37;;;;;;;;;68.75;53.25;;;;;;;;12733218;27;8815;-48
2020/12/04 21:03:38;;;;;;;;;70.00;52.50;;;;;;;;12732948;27;8843;-50
2020/12/04 21:09:40;;;;;;;;;65.50;52.50;;;;;;;;12732328;27;9898;-50
2020/12/04 21:15:41;;;;;;;;;60.75;46.75;;;;;;;;12715275;27;8839;-50
2020/12/04 21:21:43;;;;;;;;;67.75;53.50;;;;;;;;12732311;27;8819;-51
2020/12/04 21:27:44;;;;;;;;;67.25;51.25;;;;;;;;12731838;27;9662;-50
2020/12/04 21:33:46;;;;;;;;;68.25;54.50;;;;;;;;12722940;27;9798;-50
2020/12/04 21:39:47;;;;;;;;;65.25;51.25;;;;;;;;12731074;27;8914;-48
2020/12/04 21:45:49;;;;;;;;;61.25;48.75;;;;;;;;12733196;27;9442;-50
2020/12/04 21:51:50;;;;;;;;;64.25;52.25;;;;;;;;12731507;27;8855;-51
2020/12/04 21:57:52;;;;;;;;;60.75;45.00;;;;;;;;12731591;27;9190;-52
2020/12/04 22:03:54;;;;;;;;;62.50;51.25;;;;;;;;12730859;27;8907;-52
2020/12/04 22:09:56;;;;;;;;;67.75;53.75;;;;;;;;12729640;27;8846;-49
2020/12/04 22:15:59;;;;;;;;;61.50;47.00;;;;;;;;12731841;27;8831;-49
2020/12/04 22:22:01;;;;;;;;;69.50;55.25;;;;;;;;12729712;27;8859;-53
2020/12/04 22:28:03;;;;;;;;;53.75;45.50;;;;;;;;12730238;27;8835;-53
2020/12/04 22:34:05;;;;;;;;;72.25;55.50;;;;;;;;12731003;27;8835;-47
2020/12/04 22:40:06;;;;;;;;;69.50;53.50;;;;;;;;12728939;27;8828;-52
2020/12/04 22:46:08;;;;;;;;;65.50;53.75;;;;;;;;12736527;27;8812;-48
2020/12/04 22:52:10;;;;;;;;;68.75;53.25;;;;;;;;12739737;27;8843;-47
2020/12/04 22:58:12;;;;;;;;;64.00;50.50;;;;;;;;12739065;27;8896;-48
2020/12/04 23:04:14;;;;;;;;;59.50;48.50;;;;;;;;12739661;27;8838;-48
2020/12/04 23:10:15;;;;;;;;;61.50;47.00;;;;;;;;12738452;27;8827;-48
2020/12/04 23:16:17;;;;;;;;;70.25;55.00;;;;;;;;12721211;27;8849;-48
2020/12/04 23:22:18;;;;;;;;;68.75;56.50;;;;;;;;12738241;27;8938;-51
2020/12/04 23:28:19;;;;;;;;;70.25;57.00;;;;;;;;12737767;27;8866;-50
2020/12/04 23:34:21;;;;;;;;;64.75;50.00;;;;;;;;12738655;27;8850;-47
2020/12/04 23:40:22;;;;;;;;;69.75;55.25;;;;;;;;12736680;27;9921;-52
2020/12/04 23:46:30;;;;;;;;;74.75;60.00;;;;;;;;12738081;27;8862;-48
2020/12/04 23:52:32;;;;;;;;;71.75;55.00;;;;;;;;12736537;27;8871;-51
2020/12/04 23:58:33;;;;;;;;;67.00;52.00;;;;;;;;12736811;27;8824;-51
